Time;durP1;ratioP1;P1;durP2;ratioP2;P2;SDS_P1;SDS_P2;PMS_P1;PMS_P2;Temp;Humidity;BMP_temperature;BMP_pressure;BME280_temperature;BME280_humidity;BME280_pressure;Samples;Min_cycle;Max_cycle;Signal;HPM_P1;HPM_P2
2024/01/23 00:01:07;;;;;;;12.23;5.07;;;8.30;99.90;;;;;;3116508;28;20034;-71
2024/01/23 00:02:37;;;;;;;22.05;7.93;;;8.30;99.90;;;;;;3117177;28;20028;-71
2024/01/23 00:04:08;;;;;;;16.63;4.97;;;8.30;99.90;;;;;;3117557;28;20025;-71
2024/01/23 00:05:39;;;;;;;22.13;6.38;;;8.30;99.90;;;;;;3116397;28;20312;-71
2024/01/23 00:07:10;;;;;;;20.85;4.85;;;8.30;99.90;;;;;;3117209;28;20075;-71
2024/01/23 00:08:40;;;;;;;7.80;4.45;;;8.30;99.90;;;;;;3116194;28;20072;-72
2024/01/23 00:10:11;;;;;;;9.35;4.82;;;8.30;99.90;;;;;;3110541;28;20030;-72
2024/01/23 00:11:42;;;;;;;11.05;4.22;;;8.30;99.90;;;;;;3108419;28;20029;-71
2024/01/23 00:13:13;;;;;;;10.43;4.88;;;8.30;99.90;;;;;;3116797;28;20061;-71
2024/01/23 00:14:43;;;;;;;20.00;6.40;;;8.30;99.90;;;;;;3120677;28;20037;-71
2024/01/23 00:16:14;;;;;;;15.77;4.95;;;8.30;99.90;;;;;;3120387;28;20034;-72
2024/01/23 00:17:45;;;;;;;19.38;5.60;;;8.20;99.90;;;;;;3115359;28;20025;-71
2024/01/23 00:19:16;;;;;;;16.83;5.82;;;8.30;99.90;;;;;;3124963;28;20064;-72
2024/01/23 00:20:48;;;;;;;15.50;5.70;;;8.20;99.90;;;;;;3121372;28;20017;-72
2024/01/23 00:22:19;;;;;;;10.38;4.15;;;8.20;99.90;;;;;;3116644;28;20065;-71
2024/01/23 00:23:51;;;;;;;20.63;6.70;;;8.20;99.90;;;;;;3117217;28;20293;-71
2024/01/23 00:25:21;;;;;;;14.07;5.72;;;8.20;99.90;;;;;;3117579;28;20029;-71
2024/01/23 00:26:52;;;;;;;15.65;7.45;;;8.20;99.90;;;;;;3116217;28;20030;-71
2024/01/23 00:28:23;;;;;;;22.48;7.53;;;8.30;99.90;;;;;;3129438;28;20226;-71
2024/01/23 00:29:54;;;;;;;12.30;4.28;;;8.20;99.90;;;;;;3133669;28;20037;-72
2024/01/23 00:31:26;;;;;;;14.73;4.43;;;8.20;99.90;;;;;;3141018;28;20025;-71
2024/01/23 00:32:58;;;;;;;12.25;4.57;;;8.20;99.90;;;;;;3117132;28;20024;-72
2024/01/23 00:34:29;;;;;;;13.05;3.92;;;8.10;99.90;;;;;;3128844;28;20043;-71
2024/01/23 00:36:00;;;;;;;23.33;5.30;;;8.20;99.90;;;;;;3121225;28;20021;-71
2024/01/23 00:37:31;;;;;;;11.23;4.72;;;8.10;99.90;;;;;;3116651;28;20251;-71
2024/01/23 00:39:02;;;;;;;19.77;5.32;;;8.20;99.90;;;;;;3108897;28;20026;-71
2024/01/23 00:40:34;;;;;;;10.35;4.60;;;8.20;99.90;;;;;;3107684;28;20039;-71
2024/01/23 00:42:08;;;;;;;15.27;7.05;;;8.20;99.90;;;;;;3129462;28;20025;-71
2024/01/23 00:43:38;;;;;;;20.30;6.50;;;8.20;99.90;;;;;;3141384;28;20043;-72
2024/01/23 00:45:09;;;;;;;10.50;3.78;;;8.20;99.90;;;;;;3132632;28;20319;-72
2024/01/23 00:46:40;;;;;;;16.10;4.40;;;8.20;99.90;;;;;;3116311;28;20049;-71
2024/01/23 00:48:11;;;;;;;17.23;5.45;;;8.20;99.90;;;;;;3101779;28;20316;-71
2024/01/23 00:49:41;;;;;;;22.52;3.75;;;8.20;99.90;;;;;;3112396;28;20026;-71
2024/01/23 00:51:12;;;;;;;15.55;4.13;;;8.20;99.90;;;;;;3116050;28;20074;-71
2024/01/23 00:52:43;;;;;;;20.13;5.78;;;8.20;99.90;;;;;;3124494;28;20060;-71
2024/01/23 00:54:14;;;;;;;13.02;6.00;;;8.20;99.90;;;;;;3121105;28;20367;-71
2024/01/23 00:55:45;;;;;;;10.07;3.90;;;8.20;99.90;;;;;;3137153;28;20043;-71
2024/01/23 00:57:15;;;;;;;16.35;5.22;;;8.10;99.90;;;;;;3133186;28;20277;-71
2024/01/23 00:58:47;;;;;;;21.55;5.43;;;8.10;99.90;;;;;;3118297;28;20065;-71
2024/01/23 01:00:19;;;;;;;14.68;5.43;;;8.10;99.90;;;;;;3103720;28;20064;-71
2024/01/23 01:01:49;;;;;;;11.63;4.53;;;8.10;99.90;;;;;;3104138;28;20037;-71
2024/01/23 01:03:20;;;;;;;9.75;4.28;;;8.10;99.90;;;;;;3115056;28;20022;-71
2024/01/23 01:04:51;;;;;;;6.13;3.67;;;8.10;99.90;;;;;;3115625;28;20034;-70
2024/01/23 01:06:22;;;;;;;4.85;2.90;;;8.10;99.90;;;;;;3115905;28;20234;-71
2024/01/23 01:07:54;;;;;;;17.20;7.28;;;8.10;99.90;;;;;;3112155;28;20308;-71
2024/01/23 01:09:25;;;;;;;15.63;3.80;;;8.00;99.90;;;;;;3103918;28;20168;-73
2024/01/23 01:10:56;;;;;;;9.15;3.22;;;8.10;99.90;;;;;;3115514;28;20036;-72
2024/01/23 01:12:27;;;;;;;14.82;5.05;;;8.10;99.90;;;;;;3111931;28;20085;-72
2024/01/23 01:13:58;;;;;;;20.83;5.22;;;8.10;99.90;;;;;;3124400;28;20037;-72
2024/01/23 01:15:30;;;;;;;12.73;3.30;;;8.10;99.90;;;;;;3129334;28;20022;-71
2024/01/23 01:17:01;;;;;;;14.65;4.45;;;8.10;99.90;;;;;;3128479;28;20033;-70
2024/01/23 01:18:36;;;;;;;2.78;2.40;;;8.00;99.90;;;;;;3118681;28;20049;-73
2024/01/23 01:20:07;;;;;;;7.80;3.50;;;8.00;99.90;;;;;;3116201;28;20084;-73
2024/01/23 01:21:38;;;;;;;17.70;4.13;;;8.00;99.90;;;;;;3113101;28;20026;-73
2024/01/23 01:23:09;;;;;;;8.85;3.75;;;8.00;99.90;;;;;;3116535;28;20022;-73
2024/01/23 01:24:40;;;;;;;13.52;7.03;;;8.00;99.90;;;;;;3116370;28;20052;-72
2024/01/23 01:26:11;;;;;;;13.35;4.13;;;7.90;99.90;;;;;;3116548;28;20026;-74
2024/01/23 01:27:41;;;;;;;9.80;3.92;;;7.90;99.90;;;;;;3115764;28;20200;-72
2024/01/23 01:29:12;;;;;;;11.20;2.90;;;7.90;99.90;;;;;;3116119;28;20041;-70
2024/01/23 01:30:43;;;;;;;6.78;2.85;;;7.80;99.90;;;;;;3103861;28;20367;-71
2024/01/23 01:32:14;;;;;;;14.40;3.90;;;7.70;99.90;;;;;;3081832;28;20031;-71
2024/01/23 01:33:45;;;;;;;4.75;3.35;;;7.70;99.90;;;;;;3096533;28;20030;-71
2024/01/23 01:35:15;;;;;;;6.40;3.47;;;7.70;99.90;;;;;;3104011;28;20033;-70
2024/01/23 01:36:46;;;;;;;10.57;3.35;;;7.60;99.90;;;;;;3099964;28;20031;-70
2024/01/23 01:38:17;;;;;;;13.60;3.55;;;7.60;99.90;;;;;;3109773;28;20036;-71
2024/01/23 01:39:48;;;;;;;4.47;2.83;;;7.40;99.90;;;;;;3115633;28;20025;-71
2024/01/23 01:41:19;;;;;;;8.35;2.63;;;7.40;99.90;;;;;;3111095;28;20196;-71
2024/01/23 01:42:53;;;;;;;13.75;4.03;;;7.40;99.90;;;;;;3120154;28;20048;-72
2024/01/23 01:44:24;;;;;;;7.40;3.13;;;7.30;99.90;;;;;;3125266;28;20030;-71
2024/01/23 01:46:18;;;;;;;9.57;4.03;;;7.30;99.90;;;;;;3099946;28;20018;-71
2024/01/23 01:47:50;;;;;;;8.85;4.40;;;7.40;99.90;;;;;;3118118;28;20063;-71
2024/01/23 01:49:21;;;;;;;5.45;2.83;;;7.40;99.90;;;;;;3138985;28;20024;-70
2024/01/23 01:50:52;;;;;;;11.07;3.78;;;7.40;99.90;;;;;;3134979;28;20108;-71
2024/01/23 01:52:23;;;;;;;15.65;2.88;;;7.30;99.90;;;;;;3130418;28;20236;-70
2024/01/23 01:53:56;;;;;;;3.58;2.65;;;7.20;99.90;;;;;;3131205;28;20037;-71
2024/01/23 01:55:29;;;;;;;9.38;4.38;;;7.20;99.90;;;;;;3142981;28;20207;-72
2024/01/23 01:57:00;;;;;;;13.85;4.97;;;7.20;99.90;;;;;;3124725;28;20049;-72
2024/01/23 01:58:32;;;;;;;7.32;3.50;;;7.10;99.90;;;;;;3125388;28;20033;-70
2024/01/23 02:00:06;;;;;;;7.50;3.47;;;7.20;99.90;;;;;;3122693;28;20037;-71
2024/01/23 02:01:45;;;;;;;11.50;3.80;;;7.10;99.90;;;;;;3118018;28;20319;-70
2024/01/23 02:03:17;;;;;;;8.60;3.95;;;7.20;99.90;;;;;;3118426;28;20040;-73
2024/01/23 02:04:47;;;;;;;9.10;4.68;;;7.20;99.90;;;;;;3118595;28;20026;-70
2024/01/23 02:06:19;;;;;;;6.88;3.05;;;7.10;99.90;;;;;;3118251;28;20215;-71
2024/01/23 02:07:50;;;;;;;6.78;3.53;;;7.10;99.90;;;;;;3117517;28;20021;-71
2024/01/23 02:09:21;;;;;;;8.45;4.30;;;7.00;99.90;;;;;;3117983;28;20025;-70
2024/01/23 02:10:54;;;;;;;7.38;3.92;;;7.10;99.90;;;;;;3105013;28;20010;-71
2024/01/23 02:12:25;;;;;;;3.60;2.75;;;7.20;99.90;;;;;;3110081;28;20030;-71
2024/01/23 02:13:56;;;;;;;8.65;3.55;;;7.10;99.90;;;;;;3113898;28;20103;-71
2024/01/23 02:15:27;;;;;;;19.33;5.18;;;7.10;99.90;;;;;;3101697;28;20030;-72
2024/01/23 02:16:57;;;;;;;6.30;3.00;;;7.10;99.90;;;;;;3097868;28;20014;-71
2024/01/23 02:18:29;;;;;;;16.13;4.93;;;7.00;99.90;;;;;;3105520;28;20031;-71
2024/01/23 02:20:00;;;;;;;15.10;4.43;;;7.00;99.90;;;;;;3106574;28;20132;-71
2024/01/23 02:21:30;;;;;;;11.15;4.38;;;6.90;99.90;;;;;;3106685;28;20030;-71
2024/01/23 02:23:01;;;;;;;11.35;3.97;;;7.00;99.90;;;;;;3105575;28;20023;-71
2024/01/23 02:24:32;;;;;;;11.35;3.20;;;6.90;99.90;;;;;;3101753;28;20026;-70
2024/01/23 02:26:03;;;;;;;6.70;3.92;;;6.90;99.90;;;;;;3106397;28;20307;-72
2024/01/23 02:27:34;;;;;;;5.65;2.67;;;6.80;99.90;;;;;;3093075;28;20028;-70
2024/01/23 02:29:05;;;;;;;13.77;4.78;;;6.80;99.90;;;;;;3105303;28;20094;-70
2024/01/23 02:30:36;;;;;;;8.48;3.60;;;6.80;99.90;;;;;;3106232;28;20073;-72
2024/01/23 02:32:08;;;;;;;6.53;3.47;;;6.70;99.90;;;;;;3114490;28;20026;-71
2024/01/23 02:33:38;;;;;;;23.55;4.30;;;6.80;99.90;;;;;;3129404;28;20059;-71
2024/01/23 02:35:09;;;;;;;9.88;4.97;;;6.80;99.90;;;;;;3122344;28;20291;-71
2024/01/23 02:36:43;;;;;;;14.90;3.47;;;6.80;99.90;;;;;;3119046;28;20026;-70
2024/01/23 02:38:14;;;;;;;14.43;4.15;;;6.80;99.90;;;;;;3117386;28;20014;-71
2024/01/23 02:39:45;;;;;;;5.15;2.83;;;6.80;99.90;;;;;;3117429;28;20085;-70
2024/01/23 02:41:16;;;;;;;10.85;3.58;;;6.70;99.90;;;;;;3125132;28;20030;-72
2024/01/23 02:42:47;;;;;;;11.77;3.92;;;6.70;99.90;;;;;;3142113;28;20074;-71
2024/01/23 02:44:17;;;;;;;16.25;4.82;;;6.70;99.90;;;;;;3134144;28;20022;-71
2024/01/23 02:45:48;;;;;;;4.88;3.75;;;6.70;99.90;;;;;;3137956;28;20222;-72
2024/01/23 02:47:20;;;;;;;13.63;4.13;;;6.70;99.90;;;;;;3117633;28;20034;-72
2024/01/23 02:48:51;;;;;;;12.75;6.35;;;6.70;99.90;;;;;;3113820;28;20028;-70
2024/01/23 02:50:22;;;;;;;7.07;3.05;;;6.70;99.90;;;;;;3118219;28;20072;-70
2024/01/23 02:51:53;;;;;;;9.02;4.00;;;6.70;99.90;;;;;;3118415;28;20026;-71
2024/01/23 02:53:23;;;;;;;12.32;4.10;;;6.70;99.90;;;;;;3118282;28;20308;-71
2024/01/23 02:54:54;;;;;;;6.35;3.60;;;6.70;99.90;;;;;;3117651;28;20056;-71
2024/01/23 02:56:25;;;;;;;12.60;3.67;;;6.70;99.90;;;;;;3117615;28;20085;-73
2024/01/23 02:57:56;;;;;;;11.75;3.80;;;6.60;99.90;;;;;;3104084;28;20027;-71
2024/01/23 02:59:27;;;;;;;10.52;3.80;;;6.70;99.90;;;;;;3109048;28;20045;-71
2024/01/23 03:00:58;;;;;;;12.10;3.75;;;6.70;99.90;;;;;;3092940;28;20216;-72
2024/01/23 03:02:28;;;;;;;15.25;4.15;;;6.60;99.90;;;;;;3119267;28;20029;-73
2024/01/23 03:03:59;;;;;;;9.80;3.30;;;6.60;99.90;;;;;;3129785;28;20060;-73
2024/01/23 03:05:30;;;;;;;5.60;3.03;;;6.60;99.90;;;;;;3129358;28;20335;-70
2024/01/23 03:07:01;;;;;;;8.18;3.60;;;6.60;99.90;;;;;;3113476;28;20030;-71
2024/01/23 03:08:32;;;;;;;14.32;4.32;;;6.60;99.90;;;;;;3111943;28;20069;-71
2024/01/23 03:10:03;;;;;;;19.95;6.38;;;6.60;99.90;;;;;;3113184;28;20037;-71
2024/01/23 03:11:33;;;;;;;13.15;4.15;;;6.70;99.90;;;;;;3117064;28;20022;-71
2024/01/23 03:13:04;;;;;;;13.73;3.85;;;6.70;99.90;;;;;;3118041;28;20041;-71
2024/01/23 03:14:35;;;;;;;22.52;5.55;;;6.60;99.90;;;;;;3118002;28;20349;-70
2024/01/23 03:16:06;;;;;;;9.50;3.22;;;6.60;99.90;;;;;;3117328;28;20105;-72
2024/01/23 03:17:37;;;;;;;16.70;6.03;;;6.60;99.90;;;;;;3116188;28;20033;-71
2024/01/23 03:19:08;;;;;;;7.63;3.35;;;6.60;99.90;;;;;;3117199;28;20029;-71
2024/01/23 03:20:39;;;;;;;10.23;4.28;;;6.60;99.90;;;;;;3117256;28;20061;-71
2024/01/23 03:22:11;;;;;;;13.38;5.20;;;6.60;99.90;;;;;;3116472;28;20267;-71
2024/01/23 03:23:42;;;;;;;4.13;3.20;;;7.00;99.90;;;;;;3117437;28;20022;-72
2024/01/23 03:25:12;;;;;;;6.65;3.15;;;6.50;99.90;;;;;;3117950;28;20053;-71
2024/01/23 03:26:43;;;;;;;12.15;2.88;;;6.60;99.90;;;;;;3104875;28;20186;-72
2024/01/23 03:28:14;;;;;;;14.27;4.10;;;6.60;99.90;;;;;;3111549;28;20022;-71
2024/01/23 03:29:45;;;;;;;13.15;4.65;;;6.60;99.90;;;;;;3104739;28;20034;-71
2024/01/23 03:31:16;;;;;;;18.05;3.97;;;6.60;99.90;;;;;;3109016;28;20041;-71
2024/01/23 03:32:47;;;;;;;20.55;4.30;;;6.60;99.90;;;;;;3117429;28;20582;-70
2024/01/23 03:34:21;;;;;;;17.33;4.95;;;6.60;99.90;;;;;;3129213;28;20048;-70
2024/01/23 03:35:51;;;;;;;8.77;3.90;;;6.60;99.90;;;;;;3116956;28;20311;-72
2024/01/23 03:37:22;;;;;;;6.78;4.88;;;6.60;99.90;;;;;;3125515;28;20022;-72
2024/01/23 03:38:53;;;;;;;7.72;4.47;;;6.60;99.90;;;;;;3089944;28;20015;-70
2024/01/23 03:40:24;;;;;;;9.40;4.10;;;6.60;99.90;;;;;;3101182;28;20194;-71
2024/01/23 03:41:56;;;;;;;12.02;5.60;;;6.60;99.90;;;;;;3105603;28;20089;-71
2024/01/23 03:43:27;;;;;;;10.32;5.38;;;6.50;99.90;;;;;;3092424;28;20229;-71
2024/01/23 03:44:57;;;;;;;11.35;4.45;;;6.50;99.90;;;;;;3101133;28;20105;-72
2024/01/23 03:46:28;;;;;;;9.18;3.22;;;6.50;99.90;;;;;;3104702;28;20026;-71
2024/01/23 03:48:01;;;;;;;11.18;3.72;;;6.50;99.90;;;;;;3115447;28;20013;-70
2024/01/23 03:49:32;;;;;;;15.32;5.03;;;6.50;99.90;;;;;;3084031;28;20261;-71
2024/01/23 03:51:03;;;;;;;10.00;3.85;;;6.50;99.90;;;;;;3117765;28;20041;-70
2024/01/23 03:52:34;;;;;;;19.52;5.32;;;6.40;99.90;;;;;;3108431;28;20030;-72
2024/01/23 03:54:04;;;;;;;20.55;5.30;;;6.50;99.90;;;;;;3100599;28;20121;-72
2024/01/23 03:55:35;;;;;;;8.65;4.50;;;6.50;99.90;;;;;;3112744;28;20030;-70
2024/01/23 03:57:06;;;;;;;10.10;2.65;;;6.40;99.90;;;;;;3104520;28;20038;-71
2024/01/23 03:58:37;;;;;;;9.75;4.18;;;6.30;99.90;;;;;;3100559;28;20260;-72
2024/01/23 04:00:09;;;;;;;12.50;4.32;;;6.30;99.90;;;;;;3100655;28;20054;-72
2024/01/23 04:01:44;;;;;;;14.40;6.47;;;6.30;99.90;;;;;;3111102;28;20377;-70
2024/01/23 04:03:15;;;;;;;12.10;4.90;;;6.30;99.90;;;;;;3116647;28;20060;-71
2024/01/23 04:04:46;;;;;;;8.07;3.42;;;6.30;99.90;;;;;;3112782;28;20101;-72
2024/01/23 04:06:17;;;;;;;17.88;7.70;;;6.30;99.90;;;;;;3112673;28;20014;-71
2024/01/23 04:07:48;;;;;;;13.35;4.40;;;6.30;99.90;;;;;;3115298;28;20026;-72
2024/01/23 04:09:19;;;;;;;14.55;4.75;;;6.30;99.90;;;;;;3104349;28;20026;-71
2024/01/23 04:10:50;;;;;;;12.88;4.18;;;6.30;99.90;;;;;;3112585;28;20397;-71
2024/01/23 04:12:21;;;;;;;11.55;4.03;;;6.20;99.90;;;;;;3117219;28;20052;-70
2024/01/23 04:13:52;;;;;;;13.43;6.18;;;6.20;99.90;;;;;;3128473;28;20338;-71
2024/01/23 04:15:22;;;;;;;9.57;6.20;;;6.30;99.90;;;;;;3116546;28;20037;-72
2024/01/23 04:16:53;;;;;;;7.68;3.35;;;6.10;99.90;;;;;;3120783;28;20060;-71
2024/01/23 04:18:27;;;;;;;16.10;5.25;;;6.20;99.90;;;;;;3103894;28;20037;-71
2024/01/23 04:19:58;;;;;;;7.88;3.35;;;6.20;99.90;;;;;;3104689;28;20080;-71
2024/01/23 04:21:29;;;;;;;12.13;3.42;;;6.20;99.90;;;;;;3092452;28;20105;-70
2024/01/23 04:23:00;;;;;;;10.90;5.20;;;6.10;99.90;;;;;;3100155;28;20038;-70
2024/01/23 04:24:31;;;;;;;20.98;5.18;;;6.10;99.90;;;;;;3104703;28;20030;-71
2024/01/23 04:26:01;;;;;;;11.40;4.85;;;6.10;99.90;;;;;;3116535;28;20212;-71
2024/01/23 04:27:32;;;;;;;12.13;5.28;;;6.00;99.90;;;;;;3107206;28;20370;-73
2024/01/23 04:29:03;;;;;;;7.95;5.57;;;6.10;99.90;;;;;;3116834;28;20029;-70
2024/01/23 04:30:34;;;;;;;7.03;3.35;;;6.10;99.90;;;;;;3116506;28;20056;-71
2024/01/23 04:32:05;;;;;;;13.95;4.18;;;6.10;99.90;;;;;;3104817;28;20030;-73
2024/01/23 04:33:36;;;;;;;18.40;5.45;;;6.10;99.90;;;;;;3112009;28;20033;-70
2024/01/23 04:35:07;;;;;;;6.50;4.32;;;6.20;99.90;;;;;;3116886;28;20030;-72
2024/01/23 04:36:37;;;;;;;13.85;5.32;;;6.10;99.90;;;;;;3117386;28;20021;-70
2024/01/23 04:38:08;;;;;;;11.45;4.03;;;6.00;99.90;;;;;;3116354;28;20026;-70
2024/01/23 04:39:40;;;;;;;12.18;4.50;;;6.00;99.90;;;;;;3116856;28;20098;-71
2024/01/23 04:41:11;;;;;;;16.40;6.10;;;6.00;99.90;;;;;;3118598;28;20026;-70
2024/01/23 04:42:42;;;;;;;18.15;6.35;;;6.10;99.90;;;;;;3125723;28;20331;-73
2024/01/23 04:44:13;;;;;;;19.83;5.25;;;6.00;99.90;;;;;;3128813;28;20033;-70
2024/01/23 04:45:43;;;;;;;21.17;4.18;;;6.10;99.90;;;;;;3095791;28;20018;-71
2024/01/23 04:47:14;;;;;;;6.05;3.88;;;6.10;99.90;;;;;;3100294;28;20097;-71
2024/01/23 04:48:46;;;;;;;7.50;3.25;;;6.00;99.90;;;;;;3119374;28;20246;-71
2024/01/23 04:50:18;;;;;;;10.27;4.35;;;6.00;99.90;;;;;;3120593;28;20026;-70
2024/01/23 04:51:49;;;;;;;23.52;6.38;;;6.00;99.90;;;;;;3092116;28;20023;-70
2024/01/23 04:53:20;;;;;;;9.82;2.67;;;6.00;99.90;;;;;;3108878;28;20037;-71
2024/01/23 04:54:50;;;;;;;8.88;3.92;;;5.90;99.90;;;;;;3104186;28;20169;-70
2024/01/23 04:56:21;;;;;;;5.07;3.72;;;6.00;99.90;;;;;;3112952;28;20073;-71
2024/01/23 04:57:52;;;;;;;17.73;4.20;;;5.90;99.90;;;;;;3118209;28;20040;-71
2024/01/23 04:59:26;;;;;;;12.32;3.08;;;6.00;99.90;;;;;;3124310;28;20038;-72
2024/01/23 05:00:56;;;;;;;21.52;4.90;;;6.00;99.90;;;;;;3112930;28;20036;-72
2024/01/23 05:02:28;;;;;;;17.58;4.85;;;5.90;99.90;;;;;;3132805;28;20028;-71
2024/01/23 05:03:58;;;;;;;7.20;4.40;;;5.90;99.90;;;;;;3128199;28;20196;-71
2024/01/23 05:05:31;;;;;;;10.38;2.75;;;5.80;99.90;;;;;;3129324;28;20030;-71
2024/01/23 05:07:01;;;;;;;12.45;4.75;;;5.80;99.90;;;;;;3140871;28;20067;-71
2024/01/23 05:08:32;;;;;;;30.17;5.10;;;5.80;99.90;;;;;;3118387;28;20316;-72
2024/01/23 05:10:04;;;;;;;17.42;5.43;;;5.80;99.90;;;;;;3128947;28;20028;-73
2024/01/23 05:11:36;;;;;;;9.25;3.97;;;5.80;99.90;;;;;;3140860;28;20083;-71
2024/01/23 05:13:07;;;;;;;12.05;5.30;;;5.80;99.90;;;;;;3103792;28;20026;-71
2024/01/23 05:14:37;;;;;;;9.98;5.28;;;5.80;99.90;;;;;;3116413;28;20117;-70
2024/01/23 05:16:08;;;;;;;10.55;4.72;;;5.80;99.90;;;;;;3124454;28;20048;-71
2024/01/23 05:17:39;;;;;;;12.77;3.53;;;5.70;99.90;;;;;;3121397;28;20029;-71
2024/01/23 05:19:10;;;;;;;7.07;4.22;;;5.70;99.90;;;;;;3100166;28;20270;-71
2024/01/23 05:20:41;;;;;;;8.20;2.97;;;5.80;99.90;;;;;;3106684;28;20026;-71
2024/01/23 05:22:12;;;;;;;9.13;4.78;;;5.70;99.90;;;;;;3106434;28;20177;-72
2024/01/23 05:23:43;;;;;;;13.63;4.40;;;5.70;99.90;;;;;;3106437;28;20018;-71
2024/01/23 05:25:16;;;;;;;9.70;3.38;;;5.70;99.90;;;;;;3106134;28;20018;-71
2024/01/23 05:26:47;;;;;;;5.45;4.88;;;5.70;99.90;;;;;;3102638;28;20108;-73
2024/01/23 05:28:18;;;;;;;20.48;4.15;;;5.80;99.90;;;;;;3099037;28;20034;-70
2024/01/23 05:29:49;;;;;;;13.45;5.28;;;5.60;99.90;;;;;;3114290;28;20106;-70
2024/01/23 05:31:20;;;;;;;5.10;2.47;;;;;;;;;;3099212;28;20033;-70
2024/01/23 05:32:51;;;;;;;6.60;4.95;;;5.60;99.90;;;;;;3107740;28;20022;-72
2024/01/23 05:34:21;;;;;;;26.15;4.03;;;5.50;99.90;;;;;;3113309;28;20081;-73
2024/01/23 05:35:53;;;;;;;7.45;2.45;;;5.50;99.90;;;;;;3117495;28;20083;-73
2024/01/23 05:37:25;;;;;;;5.85;4.25;;;5.40;99.90;;;;;;3105661;28;20022;-72
2024/01/23 05:38:56;;;;;;;10.05;3.65;;;5.40;99.90;;;;;;3100893;28;20320;-74
2024/01/23 05:40:27;;;;;;;7.00;3.85;;;5.40;99.90;;;;;;3109739;28;20022;-72
2024/01/23 05:41:58;;;;;;;15.10;5.35;;;5.40;99.90;;;;;;3101359;28;20053;-72
2024/01/23 05:43:29;;;;;;;13.25;5.40;;;5.40;99.90;;;;;;3109953;28;20038;-72
2024/01/23 05:45:00;;;;;;;6.32;2.90;;;5.40;99.90;;;;;;3118678;28;20050;-72
2024/01/23 05:46:32;;;;;;;6.22;3.55;;;5.40;99.90;;;;;;3117723;28;20022;-72
2024/01/23 05:48:03;;;;;;;12.70;4.57;;;5.30;99.90;;;;;;3115733;28;20227;-73
2024/01/23 05:49:34;;;;;;;15.90;4.57;;;5.30;99.90;;;;;;3122735;28;20381;-73
2024/01/23 05:51:05;;;;;;;11.63;4.35;;;5.30;99.90;;;;;;3110575;28;20041;-74
2024/01/23 05:52:36;;;;;;;13.57;5.90;;;5.30;99.90;;;;;;3118129;28;20703;-72
2024/01/23 05:54:06;;;;;;;17.05;5.80;;;5.30;99.90;;;;;;3126383;28;20132;-74
2024/01/23 05:55:37;;;;;;;5.72;4.28;;;5.20;99.90;;;;;;3106184;28;20026;-72
2024/01/23 05:57:08;;;;;;;8.73;3.72;;;5.30;99.90;;;;;;3113860;28;20188;-72
2024/01/23 05:58:42;;;;;;;3.63;3.33;;;5.20;99.90;;;;;;3090992;28;20114;-74
2024/01/23 06:00:13;;;;;;;9.13;4.68;;;5.20;99.90;;;;;;3109874;28;20101;-74
2024/01/23 06:01:44;;;;;;;11.40;5.88;;;5.20;99.90;;;;;;3101442;28;20011;-74
2024/01/23 06:03:15;;;;;;;10.55;4.55;;;5.20;99.90;;;;;;3121795;28;20310;-72
2024/01/23 06:04:45;;;;;;;11.45;5.22;;;5.10;99.90;;;;;;3121992;28;20026;-74
2024/01/23 06:06:19;;;;;;;6.80;2.90;;;5.20;99.90;;;;;;3129740;28;20029;-74
2024/01/23 06:07:50;;;;;;;7.93;4.18;;;5.20;99.90;;;;;;3115932;28;20018;-71
2024/01/23 06:09:21;;;;;;;9.73;3.88;;;5.20;99.90;;;;;;3124457;28;20040;-72
2024/01/23 06:10:51;;;;;;;23.92;5.03;;;5.20;99.90;;;;;;3117263;28;20034;-72
2024/01/23 06:12:22;;;;;;;17.27;5.13;;;5.30;99.90;;;;;;3118204;28;20034;-72
2024/01/23 06:13:53;;;;;;;13.90;7.03;;;5.20;99.90;;;;;;3118625;28;20038;-72
2024/01/23 06:15:24;;;;;;;13.68;5.43;;;5.30;99.90;;;;;;3129467;28;20028;-73
2024/01/23 06:16:56;;;;;;;17.30;5.38;;;5.30;99.90;;;;;;3097363;28;20323;-73
2024/01/23 06:18:26;;;;;;;12.50;5.18;;;5.20;99.90;;;;;;3109319;28;20034;-73
2024/01/23 06:20:00;;;;;;;13.05;6.57;;;5.20;99.90;;;;;;3113576;28;20347;-73
2024/01/23 06:21:31;;;;;;;12.93;5.43;;;5.20;99.90;;;;;;3108933;28;20097;-73
2024/01/23 06:23:02;;;;;;;6.88;2.80;;;5.20;99.90;;;;;;3100333;28;20184;-75
2024/01/23 06:24:33;;;;;;;11.45;4.10;;;5.10;99.90;;;;;;3108434;28;20093;-74
2024/01/23 06:26:04;;;;;;;20.25;4.70;;;5.10;99.90;;;;;;3097462;28;20065;-75
2024/01/23 06:27:35;;;;;;;17.23;4.18;;;5.10;99.90;;;;;;3099737;28;20030;-75
2024/01/23 06:29:06;;;;;;;13.57;5.80;;;5.10;99.90;;;;;;3090416;28;20343;-76
2024/01/23 06:30:37;;;;;;;9.23;5.22;;;5.10;99.90;;;;;;3097651;28;20026;-75
2024/01/23 06:32:07;;;;;;;13.13;4.18;;;5.10;99.90;;;;;;3119999;28;20025;-75
2024/01/23 06:33:39;;;;;;;16.77;5.88;;;5.00;99.90;;;;;;3117165;28;20042;-74
2024/01/23 06:35:10;;;;;;;11.30;4.78;;;5.00;99.90;;;;;;3117908;28;20034;-73
2024/01/23 06:36:46;;;;;;;11.43;4.03;;;5.00;99.90;;;;;;3117263;28;20069;-74
2024/01/23 06:38:17;;;;;;;19.38;4.82;;;5.10;99.90;;;;;;3112219;28;20041;-73
2024/01/23 06:39:50;;;;;;;11.65;3.22;;;5.10;99.90;;;;;;3113223;28;20030;-73
2024/01/23 06:41:21;;;;;;;9.75;4.35;;;5.00;99.90;;;;;;3113773;28;20399;-75
2024/01/23 06:42:52;;;;;;;19.45;6.55;;;5.00;99.90;;;;;;3112929;28;20212;-72
2024/01/23 06:44:23;;;;;;;9.05;3.72;;;5.00;99.90;;;;;;3100535;28;20018;-72
2024/01/23 06:45:55;;;;;;;14.80;6.25;;;5.00;99.90;;;;;;3113492;28;20018;-73
2024/01/23 06:47:26;;;;;;;20.13;3.53;;;5.00;99.90;;;;;;3105062;28;20026;-73
2024/01/23 06:48:57;;;;;;;12.77;4.53;;;5.00;99.90;;;;;;3111348;28;20419;-73
2024/01/23 06:50:29;;;;;;;11.40;6.63;;;5.00;99.90;;;;;;3112952;28;20025;-73
2024/01/23 06:52:00;;;;;;;9.10;3.83;;;5.10;99.90;;;;;;3104931;28;20033;-75
2024/01/23 06:53:31;;;;;;;12.32;4.43;;;5.00;99.90;;;;;;3105896;28;20254;-74
2024/01/23 06:55:03;;;;;;;12.82;6.78;;;5.00;99.90;;;;;;3113202;28;20030;-75
2024/01/23 06:56:34;;;;;;;15.75;5.55;;;5.00;99.90;;;;;;3116977;28;20045;-75
2024/01/23 06:58:05;;;;;;;7.55;4.05;;;5.00;99.90;;;;;;3128477;28;20510;-75
2024/01/23 06:59:36;;;;;;;13.60;4.97;;;5.00;99.90;;;;;;3118206;28;20029;-76
2024/01/23 07:01:07;;;;;;;14.88;5.97;;;5.00;99.90;;;;;;3117585;28;20085;-76
2024/01/23 07:02:37;;;;;;;17.02;5.13;;;4.80;99.90;;;;;;3129690;28;20097;-75
2024/01/23 07:04:08;;;;;;;15.18;5.78;;;5.00;99.90;;;;;;3104772;28;20283;-78
2024/01/23 07:05:39;;;;;;;11.43;5.95;;;5.00;99.90;;;;;;3116777;28;20041;-77
2024/01/23 07:07:10;;;;;;;13.50;7.47;;;5.00;99.90;;;;;;3113065;28;20116;-74
2024/01/23 07:08:42;;;;;;;30.17;9.57;;;4.90;99.90;;;;;;3111380;28;20053;-75
2024/01/23 07:10:13;;;;;;;29.40;4.65;;;4.90;99.90;;;;;;3117382;28;20032;-74
2024/01/23 07:11:45;;;;;;;14.63;5.18;;;5.00;99.90;;;;;;3116119;28;20272;-73
2024/01/23 07:13:15;;;;;;;16.35;4.50;;;4.90;99.90;;;;;;3119939;28;20350;-70
2024/01/23 07:14:46;;;;;;;13.88;9.10;;;4.90;99.90;;;;;;3112813;28;20037;-74
2024/01/23 07:16:17;;;;;;;14.93;6.35;;;4.90;99.90;;;;;;3129223;28;20417;-73
2024/01/23 07:17:48;;;;;;;5.43;4.45;;;4.90;99.90;;;;;;3103747;28;20010;-74
2024/01/23 07:19:20;;;;;;;11.13;4.78;;;4.80;99.90;;;;;;3109266;28;20052;-71
2024/01/23 07:20:50;;;;;;;18.50;5.47;;;4.80;99.90;;;;;;3112770;28;20022;-71
2024/01/23 07:22:21;;;;;;;21.83;6.32;;;4.80;99.90;;;;;;3112884;28;20088;-71
2024/01/23 07:23:52;;;;;;;17.48;7.30;;;4.80;99.90;;;;;;3100953;28;20049;-71
2024/01/23 07:25:23;;;;;;;21.58;3.95;;;4.80;99.90;;;;;;3106089;28;20022;-73
2024/01/23 07:26:54;;;;;;;14.88;4.78;;;4.80;99.90;;;;;;3116057;28;20021;-73
2024/01/23 07:28:24;;;;;;;11.18;4.00;;;4.70;99.90;;;;;;3108897;28;20030;-72
2024/01/23 07:29:56;;;;;;;12.70;3.97;;;;;;;;;;3110596;28;20048;-72
2024/01/23 07:31:28;;;;;;;9.65;6.10;;;4.70;99.90;;;;;;3116547;28;20029;-73
2024/01/23 07:32:59;;;;;;;10.77;6.65;;;4.60;99.90;;;;;;3104197;28;20081;-73
2024/01/23 07:34:31;;;;;;;16.85;7.20;;;4.70;99.90;;;;;;3108424;28;20239;-72
2024/01/23 07:36:02;;;;;;;21.80;4.53;;;4.70;99.90;;;;;;3100551;28;20044;-73
2024/01/23 07:37:33;;;;;;;15.18;6.20;;;4.70;99.90;;;;;;3098459;28;20038;-75
2024/01/23 07:39:05;;;;;;;7.72;4.53;;;4.70;99.90;;;;;;3107010;28;20158;-72
2024/01/23 07:40:37;;;;;;;16.40;5.95;;;4.70;99.90;;;;;;3112606;28;20033;-74
2024/01/23 07:42:08;;;;;;;17.15;5.07;;;4.70;99.90;;;;;;3112167;28;20026;-72
2024/01/23 07:43:39;;;;;;;20.58;6.63;;;4.70;99.90;;;;;;3116547;28;20021;-72
2024/01/23 07:45:11;;;;;;;14.98;7.10;;;4.70;99.90;;;;;;3128340;28;20216;-73
2024/01/23 07:46:41;;;;;;;9.57;3.65;;;4.70;99.90;;;;;;3121982;28;20079;-75
2024/01/23 07:48:12;;;;;;;20.58;5.28;;;4.70;99.90;;;;;;3111903;28;20030;-76
2024/01/23 07:49:43;;;;;;;20.52;5.53;;;4.70;99.90;;;;;;3102495;28;20021;-75
2024/01/23 07:51:14;;;;;;;11.15;5.40;;;4.70;99.90;;;;;;3094354;28;20106;-74
2024/01/23 07:52:45;;;;;;;32.65;12.85;;;4.70;99.90;;;;;;3106138;28;20030;-74
2024/01/23 07:54:15;;;;;;;8.95;4.80;;;4.70;99.90;;;;;;3115139;28;20034;-74
2024/01/23 07:55:46;;;;;;;15.23;5.88;;;4.80;99.90;;;;;;3103081;28;20042;-74
2024/01/23 07:57:17;;;;;;;16.05;6.88;;;4.80;99.90;;;;;;3107206;28;20318;-73